sensor_id;sensor_type;location;lat;lon;timestamp;P1;durP1;ratioP1;P2;durP2;ratioP2
60610;SDS011;46439;51.164;13.572;2023-07-24T00:02:09;4.70;;;3.00;;
60610;SDS011;46439;51.164;13.572;2023-07-24T00:04:39;4.00;;;3.20;;
60610;SDS011;46439;51.164;13.572;2023-07-24T00:07:07;4.60;;;3.10;;
60610;SDS011;46439;51.164;13.572;2023-07-24T00:09:36;4.40;;;3.20;;
60610;SDS011;46439;51.164;13.572;2023-07-24T00:12:06;4.90;;;3.20;;
60610;SDS011;46439;51.164;13.572;2023-07-24T00:14:35;4.40;;;3.10;;
60610;SDS011;46439;51.164;13.572;2023-07-24T00:17:04;4.70;;;3.40;;
60610;SDS011;46439;51.164;13.572;2023-07-24T00:19:33;5.80;;;3.40;;
60610;SDS011;46439;51.164;13.572;2023-07-24T00:22:02;3.70;;;2.80;;
60610;SDS011;46439;51.164;13.572;2023-07-24T00:24:31;4.60;;;3.00;;
60610;SDS011;46439;51.164;13.572;2023-07-24T00:27:00;5.30;;;3.30;;
60610;SDS011;46439;51.164;13.572;2023-07-24T00:29:29;6.50;;;3.40;;
60610;SDS011;46439;51.164;13.572;2023-07-24T00:31:57;6.00;;;3.60;;
60610;SDS011;46439;51.164;13.572;2023-07-24T00:34:26;5.40;;;3.60;;
60610;SDS011;46439;51.164;13.572;2023-07-24T00:36:54;4.50;;;3.40;;
60610;SDS011;46439;51.164;13.572;2023-07-24T00:39:23;3.90;;;3.30;;
60610;SDS011;46439;51.164;13.572;2023-07-24T00:41:54;3.20;;;2.90;;
60610;SDS011;46439;51.164;13.572;2023-07-24T00:44:23;3.90;;;3.10;;
60610;SDS011;46439;51.164;13.572;2023-07-24T00:46:51;4.50;;;3.10;;
60610;SDS011;46439;51.164;13.572;2023-07-24T00:49:21;5.10;;;2.90;;
60610;SDS011;46439;51.164;13.572;2023-07-24T00:51:50;3.50;;;2.70;;
60610;SDS011;46439;51.164;13.572;2023-07-24T00:54:20;4.10;;;3.10;;
60610;SDS011;46439;51.164;13.572;2023-07-24T00:56:50;3.90;;;2.80;;
60610;SDS011;46439;51.164;13.572;2023-07-24T00:59:19;4.20;;;3.30;;
60610;SDS011;46439;51.164;13.572;2023-07-24T01:01:47;5.30;;;3.20;;
60610;SDS011;46439;51.164;13.572;2023-07-24T01:04:16;6.30;;;2.90;;
60610;SDS011;46439;51.164;13.572;2023-07-24T01:06:46;3.90;;;3.30;;
60610;SDS011;46439;51.164;13.572;2023-07-24T01:09:15;5.70;;;3.20;;
60610;SDS011;46439;51.164;13.572;2023-07-24T01:11:44;4.80;;;3.10;;
60610;SDS011;46439;51.164;13.572;2023-07-24T01:14:19;4.20;;;3.20;;
60610;SDS011;46439;51.164;13.572;2023-07-24T01:16:51;5.40;;;3.10;;
60610;SDS011;46439;51.164;13.572;2023-07-24T01:19:25;4.20;;;3.20;;
60610;SDS011;46439;51.164;13.572;2023-07-24T01:22:07;5.70;;;3.10;;
60610;SDS011;46439;51.164;13.572;2023-07-24T01:24:46;3.90;;;3.10;;
60610;SDS011;46439;51.164;13.572;2023-07-24T01:27:24;4.50;;;3.30;;
60610;SDS011;46439;51.164;13.572;2023-07-24T01:29:53;4.70;;;2.90;;
60610;SDS011;46439;51.164;13.572;2023-07-24T01:32:21;3.60;;;3.00;;
60610;SDS011;46439;51.164;13.572;2023-07-24T01:34:50;4.00;;;3.20;;
60610;SDS011;46439;51.164;13.572;2023-07-24T01:37:20;4.30;;;3.10;;
60610;SDS011;46439;51.164;13.572;2023-07-24T01:39:49;4.50;;;3.10;;
60610;SDS011;46439;51.164;13.572;2023-07-24T01:42:19;3.90;;;2.70;;
60610;SDS011;46439;51.164;13.572;2023-07-24T01:44:52;3.30;;;2.90;;
60610;SDS011;46439;51.164;13.572;2023-07-24T01:47:21;4.30;;;3.00;;
60610;SDS011;46439;51.164;13.572;2023-07-24T01:49:50;4.30;;;3.10;;
60610;SDS011;46439;51.164;13.572;2023-07-24T01:52:19;4.50;;;3.20;;
60610;SDS011;46439;51.164;13.572;2023-07-24T01:54:48;5.30;;;3.10;;
60610;SDS011;46439;51.164;13.572;2023-07-24T01:57:16;5.40;;;3.00;;
60610;SDS011;46439;51.164;13.572;2023-07-24T01:59:45;4.00;;;2.90;;
60610;SDS011;46439;51.164;13.572;2023-07-24T02:02:15;4.10;;;3.10;;
60610;SDS011;46439;51.164;13.572;2023-07-24T02:04:45;3.00;;;2.70;;
60610;SDS011;46439;51.164;13.572;2023-07-24T02:07:14;4.70;;;3.20;;
60610;SDS011;46439;51.164;13.572;2023-07-24T02:09:43;3.50;;;2.60;;
60610;SDS011;46439;51.164;13.572;2023-07-24T02:12:11;5.80;;;3.40;;
60610;SDS011;46439;51.164;13.572;2023-07-24T02:14:40;4.10;;;3.20;;
60610;SDS011;46439;51.164;13.572;2023-07-24T02:17:08;7.10;;;3.30;;
60610;SDS011;46439;51.164;13.572;2023-07-24T02:19:37;4.60;;;3.20;;
60610;SDS011;46439;51.164;13.572;2023-07-24T02:22:05;4.00;;;3.10;;
60610;SDS011;46439;51.164;13.572;2023-07-24T02:24:34;3.40;;;3.00;;
60610;SDS011;46439;51.164;13.572;2023-07-24T02:27:04;3.60;;;3.00;;
60610;SDS011;46439;51.164;13.572;2023-07-24T02:29:33;4.60;;;3.30;;
60610;SDS011;46439;51.164;13.572;2023-07-24T02:32:02;5.30;;;2.70;;
60610;SDS011;46439;51.164;13.572;2023-07-24T02:34:32;3.70;;;3.00;;
60610;SDS011;46439;51.164;13.572;2023-07-24T02:37:00;7.30;;;3.00;;
60610;SDS011;46439;51.164;13.572;2023-07-24T02:39:29;4.60;;;3.40;;
60610;SDS011;46439;51.164;13.572;2023-07-24T02:41:58;3.50;;;3.00;;
60610;SDS011;46439;51.164;13.572;2023-07-24T02:44:26;4.40;;;3.40;;
60610;SDS011;46439;51.164;13.572;2023-07-24T02:46:55;4.00;;;3.30;;
60610;SDS011;46439;51.164;13.572;2023-07-24T02:49:23;4.50;;;3.30;;
60610;SDS011;46439;51.164;13.572;2023-07-24T02:51:51;3.50;;;2.90;;
60610;SDS011;46439;51.164;13.572;2023-07-24T02:54:20;5.00;;;3.40;;
60610;SDS011;46439;51.164;13.572;2023-07-24T02:56:49;3.70;;;3.10;;
60610;SDS011;46439;51.164;13.572;2023-07-24T02:59:18;3.30;;;3.00;;
60610;SDS011;46439;51.164;13.572;2023-07-24T03:01:46;5.10;;;3.20;;
60610;SDS011;46439;51.164;13.572;2023-07-24T03:04:15;5.90;;;3.20;;
60610;SDS011;46439;51.164;13.572;2023-07-24T03:06:43;3.70;;;2.90;;
60610;SDS011;46439;51.164;13.572;2023-07-24T03:09:12;4.40;;;3.20;;
60610;SDS011;46439;51.164;13.572;2023-07-24T03:11:41;4.10;;;3.20;;
60610;SDS011;46439;51.164;13.572;2023-07-24T03:14:09;6.40;;;3.40;;
60610;SDS011;46439;51.164;13.572;2023-07-24T03:16:37;4.80;;;3.30;;
60610;SDS011;46439;51.164;13.572;2023-07-24T03:19:06;6.90;;;3.10;;
60610;SDS011;46439;51.164;13.572;2023-07-24T03:21:34;3.60;;;3.00;;
60610;SDS011;46439;51.164;13.572;2023-07-24T03:24:03;3.80;;;3.10;;
60610;SDS011;46439;51.164;13.572;2023-07-24T03:26:32;5.60;;;3.20;;
60610;SDS011;46439;51.164;13.572;2023-07-24T03:29:01;5.00;;;3.70;;
60610;SDS011;46439;51.164;13.572;2023-07-24T03:31:29;4.60;;;3.50;;
60610;SDS011;46439;51.164;13.572;2023-07-24T03:33:58;5.10;;;3.10;;
60610;SDS011;46439;51.164;13.572;2023-07-24T03:36:26;4.70;;;3.20;;
60610;SDS011;46439;51.164;13.572;2023-07-24T03:38:55;5.00;;;3.60;;
60610;SDS011;46439;51.164;13.572;2023-07-24T03:41:23;4.10;;;3.20;;
60610;SDS011;46439;51.164;13.572;2023-07-24T03:43:52;6.50;;;3.10;;
60610;SDS011;46439;51.164;13.572;2023-07-24T03:46:20;4.80;;;3.30;;
60610;SDS011;46439;51.164;13.572;2023-07-24T03:48:49;5.40;;;3.50;;
60610;SDS011;46439;51.164;13.572;2023-07-24T03:51:17;5.00;;;3.40;;
60610;SDS011;46439;51.164;13.572;2023-07-24T03:53:46;6.20;;;3.40;;
60610;SDS011;46439;51.164;13.572;2023-07-24T03:56:14;6.60;;;3.60;;
60610;SDS011;46439;51.164;13.572;2023-07-24T03:58:43;5.60;;;3.50;;
60610;SDS011;46439;51.164;13.572;2023-07-24T04:01:12;13.10;;;3.60;;
60610;SDS011;46439;51.164;13.572;2023-07-24T04:03:40;5.20;;;3.70;;
60610;SDS011;46439;51.164;13.572;2023-07-24T04:06:09;6.40;;;3.50;;
60610;SDS011;46439;51.164;13.572;2023-07-24T04:08:37;5.90;;;3.10;;
60610;SDS011;46439;51.164;13.572;2023-07-24T04:11:06;7.30;;;3.60;;
60610;SDS011;46439;51.164;13.572;2023-07-24T04:13:35;4.40;;;3.40;;
60610;SDS011;46439;51.164;13.572;2023-07-24T04:16:04;7.50;;;3.60;;
60610;SDS011;46439;51.164;13.572;2023-07-24T04:18:32;5.00;;;3.30;;
60610;SDS011;46439;51.164;13.572;2023-07-24T04:21:01;4.10;;;3.20;;
60610;SDS011;46439;51.164;13.572;2023-07-24T04:23:29;5.20;;;3.30;;
60610;SDS011;46439;51.164;13.572;2023-07-24T04:25:58;6.00;;;3.30;;
60610;SDS011;46439;51.164;13.572;2023-07-24T04:28:26;4.90;;;3.20;;
60610;SDS011;46439;51.164;13.572;2023-07-24T04:30:55;7.00;;;3.20;;
60610;SDS011;46439;51.164;13.572;2023-07-24T04:33:25;5.90;;;3.40;;
60610;SDS011;46439;51.164;13.572;2023-07-24T04:35:54;5.10;;;3.30;;
60610;SDS011;46439;51.164;13.572;2023-07-24T04:38:23;4.80;;;3.30;;
60610;SDS011;46439;51.164;13.572;2023-07-24T04:40:51;5.70;;;3.30;;
60610;SDS011;46439;51.164;13.572;2023-07-24T04:43:20;4.40;;;3.10;;
60610;SDS011;46439;51.164;13.572;2023-07-24T04:45:48;10.10;;;3.50;;
60610;SDS011;46439;51.164;13.572;2023-07-24T04:48:16;7.60;;;3.30;;
60610;SDS011;46439;51.164;13.572;2023-07-24T04:50:45;5.60;;;3.30;;
60610;SDS011;46439;51.164;13.572;2023-07-24T04:53:19;5.20;;;3.40;;
60610;SDS011;46439;51.164;13.572;2023-07-24T04:55:47;6.00;;;3.70;;
60610;SDS011;46439;51.164;13.572;2023-07-24T04:58:16;3.90;;;3.00;;
60610;SDS011;46439;51.164;13.572;2023-07-24T05:00:44;4.70;;;3.30;;
60610;SDS011;46439;51.164;13.572;2023-07-24T05:03:13;6.70;;;3.50;;
60610;SDS011;46439;51.164;13.572;2023-07-24T05:05:43;8.10;;;3.30;;
60610;SDS011;46439;51.164;13.572;2023-07-24T05:08:20;6.20;;;3.40;;
60610;SDS011;46439;51.164;13.572;2023-07-24T05:10:53;4.50;;;3.20;;
60610;SDS011;46439;51.164;13.572;2023-07-24T05:13:22;4.80;;;3.40;;
60610;SDS011;46439;51.164;13.572;2023-07-24T05:15:51;4.60;;;3.60;;
60610;SDS011;46439;51.164;13.572;2023-07-24T05:18:20;4.10;;;3.30;;
60610;SDS011;46439;51.164;13.572;2023-07-24T05:20:48;5.40;;;3.30;;
60610;SDS011;46439;51.164;13.572;2023-07-24T05:23:20;5.50;;;3.60;;
60610;SDS011;46439;51.164;13.572;2023-07-24T05:25:55;5.30;;;3.50;;
60610;SDS011;46439;51.164;13.572;2023-07-24T05:28:25;5.20;;;3.10;;
60610;SDS011;46439;51.164;13.572;2023-07-24T05:30:54;6.50;;;3.30;;
60610;SDS011;46439;51.164;13.572;2023-07-24T05:33:26;6.40;;;3.80;;
60610;SDS011;46439;51.164;13.572;2023-07-24T05:35:58;5.60;;;3.70;;
60610;SDS011;46439;51.164;13.572;2023-07-24T05:38:28;7.80;;;3.60;;
60610;SDS011;46439;51.164;13.572;2023-07-24T05:40:57;7.40;;;3.80;;
60610;SDS011;46439;51.164;13.572;2023-07-24T05:43:27;7.50;;;3.70;;
60610;SDS011;46439;51.164;13.572;2023-07-24T05:45:57;5.50;;;3.40;;
60610;SDS011;46439;51.164;13.572;2023-07-24T05:48:25;7.00;;;3.70;;
60610;SDS011;46439;51.164;13.572;2023-07-24T05:50:54;4.00;;;3.50;;
60610;SDS011;46439;51.164;13.572;2023-07-24T05:53:22;5.00;;;3.50;;
60610;SDS011;46439;51.164;13.572;2023-07-24T05:55:57;6.70;;;3.80;;
60610;SDS011;46439;51.164;13.572;2023-07-24T05:58:26;5.00;;;3.80;;
60610;SDS011;46439;51.164;13.572;2023-07-24T06:00:55;5.30;;;3.60;;
60610;SDS011;46439;51.164;13.572;2023-07-24T06:03:24;4.80;;;3.30;;
60610;SDS011;46439;51.164;13.572;2023-07-24T06:05:53;4.70;;;3.50;;
60610;SDS011;46439;51.164;13.572;2023-07-24T06:08:22;6.50;;;3.70;;
60610;SDS011;46439;51.164;13.572;2023-07-24T06:10:51;5.60;;;3.60;;
60610;SDS011;46439;51.164;13.572;2023-07-24T06:13:20;5.10;;;3.50;;
60610;SDS011;46439;51.164;13.572;2023-07-24T06:15:49;5.70;;;3.60;;
60610;SDS011;46439;51.164;13.572;2023-07-24T06:18:18;5.00;;;3.80;;
60610;SDS011;46439;51.164;13.572;2023-07-24T06:20:47;4.80;;;3.80;;
60610;SDS011;46439;51.164;13.572;2023-07-24T06:23:18;5.70;;;3.90;;
60610;SDS011;46439;51.164;13.572;2023-07-24T06:25:46;5.50;;;3.70;;
60610;SDS011;46439;51.164;13.572;2023-07-24T06:28:15;5.10;;;3.80;;
60610;SDS011;46439;51.164;13.572;2023-07-24T06:30:43;4.50;;;3.50;;
60610;SDS011;46439;51.164;13.572;2023-07-24T06:33:12;6.00;;;4.00;;
60610;SDS011;46439;51.164;13.572;2023-07-24T06:35:40;5.80;;;3.70;;
60610;SDS011;46439;51.164;13.572;2023-07-24T06:38:09;5.40;;;3.80;;
60610;SDS011;46439;51.164;13.572;2023-07-24T06:40:37;7.00;;;3.80;;
60610;SDS011;46439;51.164;13.572;2023-07-24T06:43:06;6.50;;;3.90;;
60610;SDS011;46439;51.164;13.572;2023-07-24T06:45:35;6.80;;;4.20;;
60610;SDS011;46439;51.164;13.572;2023-07-24T06:48:04;5.30;;;4.00;;
60610;SDS011;46439;51.164;13.572;2023-07-24T06:50:33;6.10;;;4.10;;
60610;SDS011;46439;51.164;13.572;2023-07-24T06:53:01;5.50;;;3.90;;
60610;SDS011;46439;51.164;13.572;2023-07-24T06:55:30;7.40;;;3.70;;
60610;SDS011;46439;51.164;13.572;2023-07-24T06:57:58;5.00;;;4.00;;
60610;SDS011;46439;51.164;13.572;2023-07-24T07:00:27;5.20;;;3.70;;
60610;SDS011;46439;51.164;13.572;2023-07-24T07:02:55;5.80;;;3.80;;
60610;SDS011;46439;51.164;13.572;2023-07-24T07:05:24;5.70;;;4.00;;
60610;SDS011;46439;51.164;13.572;2023-07-24T07:07:53;5.60;;;4.00;;
60610;SDS011;46439;51.164;13.572;2023-07-24T07:10:21;4.80;;;3.70;;
60610;SDS011;46439;51.164;13.572;2023-07-24T07:12:50;5.50;;;3.90;;
60610;SDS011;46439;51.164;13.572;2023-07-24T07:15:18;5.10;;;4.00;;
60610;SDS011;46439;51.164;13.572;2023-07-24T07:17:46;4.70;;;3.70;;
60610;SDS011;46439;51.164;13.572;2023-07-24T07:20:15;4.70;;;3.90;;
60610;SDS011;46439;51.164;13.572;2023-07-24T07:22:43;4.40;;;3.60;;
60610;SDS011;46439;51.164;13.572;2023-07-24T07:25:12;6.60;;;3.90;;
60610;SDS011;46439;51.164;13.572;2023-07-24T07:27:40;5.30;;;4.20;;
60610;SDS011;46439;51.164;13.572;2023-07-24T07:30:10;5.50;;;4.20;;
60610;SDS011;46439;51.164;13.572;2023-07-24T07:32:39;5.50;;;4.10;;
60610;SDS011;46439;51.164;13.572;2023-07-24T07:35:08;6.00;;;4.00;;
60610;SDS011;46439;51.164;13.572;2023-07-24T07:37:36;5.90;;;3.90;;
60610;SDS011;46439;51.164;13.572;2023-07-24T07:40:06;4.80;;;3.80;;
60610;SDS011;46439;51.164;13.572;2023-07-24T07:42:35;5.20;;;4.10;;
60610;SDS011;46439;51.164;13.572;2023-07-24T07:45:04;5.00;;;3.90;;
60610;SDS011;46439;51.164;13.572;2023-07-24T07:47:34;5.10;;;4.20;;
60610;SDS011;46439;51.164;13.572;2023-07-24T07:50:03;5.30;;;4.10;;
60610;SDS011;46439;51.164;13.572;2023-07-24T07:52:32;4.80;;;4.00;;
60610;SDS011;46439;51.164;13.572;2023-07-24T07:55:01;6.20;;;3.80;;
60610;SDS011;46439;51.164;13.572;2023-07-24T07:57:29;6.50;;;4.10;;
60610;SDS011;46439;51.164;13.572;2023-07-24T07:59:58;7.90;;;4.10;;
60610;SDS011;46439;51.164;13.572;2023-07-24T08:02:26;5.60;;;4.50;;
60610;SDS011;46439;51.164;13.572;2023-07-24T08:04:55;5.20;;;4.30;;
60610;SDS011;46439;51.164;13.572;2023-07-24T08:07:23;5.90;;;4.30;;
60610;SDS011;46439;51.164;13.572;2023-07-24T08:09:52;5.30;;;3.80;;
60610;SDS011;46439;51.164;13.572;2023-07-24T08:12:20;6.30;;;4.20;;
60610;SDS011;46439;51.164;13.572;2023-07-24T08:14:49;8.50;;;4.10;;
60610;SDS011;46439;51.164;13.572;2023-07-24T08:17:17;5.90;;;4.20;;
60610;SDS011;46439;51.164;13.572;2023-07-24T08:19:46;5.80;;;3.90;;
60610;SDS011;46439;51.164;13.572;2023-07-24T08:22:14;7.00;;;3.90;;
60610;SDS011;46439;51.164;13.572;2023-07-24T08:24:44;4.80;;;3.70;;
60610;SDS011;46439;51.164;13.572;2023-07-24T08:27:13;4.50;;;4.00;;
60610;SDS011;46439;51.164;13.572;2023-07-24T08:29:41;5.00;;;4.00;;
60610;SDS011;46439;51.164;13.572;2023-07-24T08:32:10;5.50;;;4.00;;
60610;SDS011;46439;51.164;13.572;2023-07-24T08:34:39;4.60;;;3.80;;
60610;SDS011;46439;51.164;13.572;2023-07-24T08:37:08;6.70;;;4.10;;
60610;SDS011;46439;51.164;13.572;2023-07-24T08:39:37;5.10;;;4.10;;
60610;SDS011;46439;51.164;13.572;2023-07-24T08:42:09;6.60;;;3.90;;
60610;SDS011;46439;51.164;13.572;2023-07-24T08:44:39;5.20;;;4.20;;
60610;SDS011;46439;51.164;13.572;2023-07-24T08:47:10;5.80;;;4.00;;
60610;SDS011;46439;51.164;13.572;2023-07-24T08:49:40;6.50;;;3.70;;
60610;SDS011;46439;51.164;13.572;2023-07-24T08:52:10;6.50;;;4.10;;
60610;SDS011;46439;51.164;13.572;2023-07-24T08:54:39;7.60;;;4.40;;
60610;SDS011;46439;51.164;13.572;2023-07-24T08:57:09;6.30;;;3.90;;
60610;SDS011;46439;51.164;13.572;2023-07-24T08:59:37;5.80;;;4.30;;
60610;SDS011;46439;51.164;13.572;2023-07-24T09:02:06;6.00;;;4.50;;
60610;SDS011;46439;51.164;13.572;2023-07-24T09:04:35;5.90;;;4.30;;
60610;SDS011;46439;51.164;13.572;2023-07-24T09:07:04;6.00;;;4.30;;
60610;SDS011;46439;51.164;13.572;2023-07-24T09:09:33;5.90;;;4.30;;
60610;SDS011;46439;51.164;13.572;2023-07-24T09:12:02;5.40;;;4.40;;
60610;SDS011;46439;51.164;13.572;2023-07-24T09:14:32;6.10;;;4.00;;
60610;SDS011;46439;51.164;13.572;2023-07-24T09:17:06;5.70;;;4.20;;
60610;SDS011;46439;51.164;13.572;2023-07-24T09:19:36;5.60;;;4.20;;
60610;SDS011;46439;51.164;13.572;2023-07-24T09:22:09;5.80;;;4.20;;
60610;SDS011;46439;51.164;13.572;2023-07-24T09:24:48;6.20;;;4.40;;
60610;SDS011;46439;51.164;13.572;2023-07-24T09:27:18;6.50;;;4.20;;
60610;SDS011;46439;51.164;13.572;2023-07-24T09:29:47;6.70;;;4.20;;
60610;SDS011;46439;51.164;13.572;2023-07-24T09:32:22;6.50;;;4.40;;
60610;SDS011;46439;51.164;13.572;2023-07-24T09:34:52;7.60;;;4.80;;
60610;SDS011;46439;51.164;13.572;2023-07-24T09:37:24;8.20;;;4.50;;
60610;SDS011;46439;51.164;13.572;2023-07-24T09:39:53;5.50;;;4.30;;
60610;SDS011;46439;51.164;13.572;2023-07-24T09:42:32;6.60;;;5.30;;
60610;SDS011;46439;51.164;13.572;2023-07-24T09:45:01;5.90;;;4.50;;
60610;SDS011;46439;51.164;13.572;2023-07-24T09:47:30;8.90;;;4.90;;
60610;SDS011;46439;51.164;13.572;2023-07-24T09:49:59;6.10;;;4.90;;
60610;SDS011;46439;51.164;13.572;2023-07-24T09:52:29;7.30;;;5.10;;
60610;SDS011;46439;51.164;13.572;2023-07-24T09:55:01;6.40;;;4.80;;
60610;SDS011;46439;51.164;13.572;2023-07-24T09:57:36;7.60;;;5.10;;
60610;SDS011;46439;51.164;13.572;2023-07-24T10:00:06;6.30;;;5.20;;
60610;SDS011;46439;51.164;13.572;2023-07-24T10:02:38;8.80;;;5.20;;
60610;SDS011;46439;51.164;13.572;2023-07-24T10:05:07;7.10;;;5.00;;
60610;SDS011;46439;51.164;13.572;2023-07-24T10:07:36;8.30;;;5.60;;
60610;SDS011;46439;51.164;13.572;2023-07-24T10:10:06;7.80;;;5.70;;
60610;SDS011;46439;51.164;13.572;2023-07-24T10:12:36;6.80;;;5.30;;
60610;SDS011;46439;51.164;13.572;2023-07-24T10:15:07;6.70;;;5.90;;
60610;SDS011;46439;51.164;13.572;2023-07-24T10:17:38;8.50;;;5.60;;
60610;SDS011;46439;51.164;13.572;2023-07-24T10:20:09;9.70;;;5.60;;
60610;SDS011;46439;51.164;13.572;2023-07-24T10:22:40;7.80;;;5.40;;
60610;SDS011;46439;51.164;13.572;2023-07-24T10:25:09;11.10;;;6.20;;
60610;SDS011;46439;51.164;13.572;2023-07-24T10:27:40;8.90;;;5.40;;
60610;SDS011;46439;51.164;13.572;2023-07-24T10:30:11;6.80;;;5.20;;
60610;SDS011;46439;51.164;13.572;2023-07-24T10:32:46;8.10;;;4.60;;
60610;SDS011;46439;51.164;13.572;2023-07-24T10:35:16;7.40;;;5.00;;
60610;SDS011;46439;51.164;13.572;2023-07-24T10:37:47;6.50;;;4.90;;
60610;SDS011;46439;51.164;13.572;2023-07-24T10:40:25;6.20;;;4.50;;
60610;SDS011;46439;51.164;13.572;2023-07-24T10:43:00;7.10;;;4.70;;
60610;SDS011;46439;51.164;13.572;2023-07-24T10:45:39;7.90;;;4.60;;
60610;SDS011;46439;51.164;13.572;2023-07-24T10:48:13;7.70;;;4.50;;
60610;SDS011;46439;51.164;13.572;2023-07-24T10:50:43;6.90;;;4.10;;
60610;SDS011;46439;51.164;13.572;2023-07-24T10:53:13;6.60;;;4.80;;
60610;SDS011;46439;51.164;13.572;2023-07-24T10:55:43;5.60;;;4.60;;
60610;SDS011;46439;51.164;13.572;2023-07-24T10:58:17;6.60;;;5.00;;
60610;SDS011;46439;51.164;13.572;2023-07-24T11:00:45;6.80;;;5.10;;
60610;SDS011;46439;51.164;13.572;2023-07-24T11:03:14;8.90;;;5.10;;
60610;SDS011;46439;51.164;13.572;2023-07-24T11:05:44;6.70;;;4.70;;
60610;SDS011;46439;51.164;13.572;2023-07-24T11:08:14;6.80;;;4.90;;
60610;SDS011;46439;51.164;13.572;2023-07-24T11:10:45;7.00;;;5.00;;
60610;SDS011;46439;51.164;13.572;2023-07-24T11:13:14;6.80;;;4.70;;
60610;SDS011;46439;51.164;13.572;2023-07-24T11:15:43;6.00;;;4.70;;
60610;SDS011;46439;51.164;13.572;2023-07-24T11:18:12;5.80;;;4.80;;
60610;SDS011;46439;51.164;13.572;2023-07-24T11:20:44;7.10;;;4.60;;
60610;SDS011;46439;51.164;13.572;2023-07-24T11:23:14;6.20;;;4.60;;
60610;SDS011;46439;51.164;13.572;2023-07-24T11:25:43;5.90;;;4.60;;
60610;SDS011;46439;51.164;13.572;2023-07-24T11:28:13;7.60;;;4.40;;
60610;SDS011;46439;51.164;13.572;2023-07-24T11:30:42;7.40;;;4.90;;
60610;SDS011;46439;51.164;13.572;2023-07-24T11:33:11;8.30;;;5.20;;
60610;SDS011;46439;51.164;13.572;2023-07-24T11:35:42;7.40;;;5.00;;
60610;SDS011;46439;51.164;13.572;2023-07-24T11:38:10;8.90;;;4.60;;
60610;SDS011;46439;51.164;13.572;2023-07-24T11:40:40;5.60;;;4.70;;
60610;SDS011;46439;51.164;13.572;2023-07-24T11:43:16;5.90;;;4.50;;
60610;SDS011;46439;51.164;13.572;2023-07-24T11:45:47;7.60;;;5.10;;
60610;SDS011;46439;51.164;13.572;2023-07-24T11:48:20;8.90;;;4.60;;
60610;SDS011;46439;51.164;13.572;2023-07-24T11:50:50;6.30;;;4.40;;
60610;SDS011;46439;51.164;13.572;2023-07-24T11:53:20;8.60;;;4.80;;
60610;SDS011;46439;51.164;13.572;2023-07-24T11:55:51;5.80;;;4.60;;
60610;SDS011;46439;51.164;13.572;2023-07-24T11:58:20;7.10;;;4.80;;
60610;SDS011;46439;51.164;13.572;2023-07-24T12:03:20;5.60;;;4.60;;
60610;SDS011;46439;51.164;13.572;2023-07-24T12:05:50;6.70;;;4.70;;
60610;SDS011;46439;51.164;13.572;2023-07-24T12:08:20;10.10;;;5.10;;
60610;SDS011;46439;51.164;13.572;2023-07-24T12:10:56;8.40;;;5.60;;
60610;SDS011;46439;51.164;13.572;2023-07-24T12:13:25;5.70;;;4.60;;
60610;SDS011;46439;51.164;13.572;2023-07-24T12:15:55;7.70;;;5.10;;
60610;SDS011;46439;51.164;13.572;2023-07-24T12:18:23;6.40;;;4.80;;
60610;SDS011;46439;51.164;13.572;2023-07-24T12:20:51;7.70;;;4.80;;
60610;SDS011;46439;51.164;13.572;2023-07-24T12:23:20;7.50;;;5.00;;
60610;SDS011;46439;51.164;13.572;2023-07-24T12:25:48;7.60;;;5.00;;
60610;SDS011;46439;51.164;13.572;2023-07-24T12:28:17;6.50;;;4.60;;
60610;SDS011;46439;51.164;13.572;2023-07-24T12:30:45;8.10;;;5.50;;
60610;SDS011;46439;51.164;13.572;2023-07-24T12:33:15;7.50;;;5.20;;
60610;SDS011;46439;51.164;13.572;2023-07-24T12:35:44;8.30;;;5.70;;
60610;SDS011;46439;51.164;13.572;2023-07-24T12:38:12;8.00;;;5.30;;
60610;SDS011;46439;51.164;13.572;2023-07-24T12:40:41;7.40;;;5.70;;
60610;SDS011;46439;51.164;13.572;2023-07-24T12:43:09;9.00;;;6.20;;
60610;SDS011;46439;51.164;13.572;2023-07-24T12:45:38;9.40;;;5.60;;
60610;SDS011;46439;51.164;13.572;2023-07-24T12:48:06;10.00;;;6.10;;
60610;SDS011;46439;51.164;13.572;2023-07-24T12:50:35;7.70;;;6.00;;
60610;SDS011;46439;51.164;13.572;2023-07-24T12:53:03;11.20;;;5.80;;
60610;SDS011;46439;51.164;13.572;2023-07-24T12:55:32;7.90;;;5.40;;
60610;SDS011;46439;51.164;13.572;2023-07-24T12:58:00;7.60;;;5.20;;
60610;SDS011;46439;51.164;13.572;2023-07-24T13:00:29;9.20;;;6.10;;
60610;SDS011;46439;51.164;13.572;2023-07-24T13:02:58;8.20;;;5.70;;
60610;SDS011;46439;51.164;13.572;2023-07-24T13:05:26;7.00;;;5.80;;
60610;SDS011;46439;51.164;13.572;2023-07-24T13:07:56;7.40;;;5.30;;
60610;SDS011;46439;51.164;13.572;2023-07-24T13:10:24;8.10;;;5.60;;
60610;SDS011;46439;51.164;13.572;2023-07-24T13:12:53;7.10;;;5.30;;
60610;SDS011;46439;51.164;13.572;2023-07-24T13:15:21;6.20;;;4.90;;
60610;SDS011;46439;51.164;13.572;2023-07-24T13:17:50;8.00;;;5.40;;
60610;SDS011;46439;51.164;13.572;2023-07-24T13:20:18;7.00;;;5.30;;
60610;SDS011;46439;51.164;13.572;2023-07-24T13:22:47;8.30;;;5.00;;
60610;SDS011;46439;51.164;13.572;2023-07-24T13:25:15;7.30;;;5.00;;
60610;SDS011;46439;51.164;13.572;2023-07-24T13:27:44;6.40;;;4.70;;
60610;SDS011;46439;51.164;13.572;2023-07-24T13:30:12;6.60;;;4.90;;
60610;SDS011;46439;51.164;13.572;2023-07-24T13:32:41;9.50;;;4.80;;
60610;SDS011;46439;51.164;13.572;2023-07-24T13:35:10;5.30;;;4.20;;
60610;SDS011;46439;51.164;13.572;2023-07-24T13:37:38;7.90;;;4.70;;
60610;SDS011;46439;51.164;13.572;2023-07-24T13:40:08;9.40;;;4.60;;
60610;SDS011;46439;51.164;13.572;2023-07-24T13:42:37;5.50;;;4.30;;
60610;SDS011;46439;51.164;13.572;2023-07-24T13:45:06;6.60;;;4.50;;
60610;SDS011;46439;51.164;13.572;2023-07-24T13:47:36;6.10;;;4.30;;
60610;SDS011;46439;51.164;13.572;2023-07-24T13:50:11;6.80;;;4.50;;
60610;SDS011;46439;51.164;13.572;2023-07-24T13:52:40;5.80;;;4.40;;
60610;SDS011;46439;51.164;13.572;2023-07-24T13:55:08;5.80;;;4.30;;
60610;SDS011;46439;51.164;13.572;2023-07-24T13:57:37;4.40;;;3.60;;
60610;SDS011;46439;51.164;13.572;2023-07-24T14:00:07;4.10;;;3.30;;
60610;SDS011;46439;51.164;13.572;2023-07-24T14:02:36;4.80;;;3.40;;
60610;SDS011;46439;51.164;13.572;2023-07-24T14:05:06;5.10;;;3.10;;
60610;SDS011;46439;51.164;13.572;2023-07-24T14:07:35;5.60;;;3.70;;
60610;SDS011;46439;51.164;13.572;2023-07-24T14:10:04;4.80;;;3.50;;
60610;SDS011;46439;51.164;13.572;2023-07-24T14:12:34;4.50;;;3.70;;
60610;SDS011;46439;51.164;13.572;2023-07-24T14:15:03;5.30;;;3.80;;
60610;SDS011;46439;51.164;13.572;2023-07-24T14:17:33;5.00;;;4.00;;
60610;SDS011;46439;51.164;13.572;2023-07-24T14:20:01;6.90;;;4.90;;
60610;SDS011;46439;51.164;13.572;2023-07-24T14:22:30;5.80;;;4.50;;
60610;SDS011;46439;51.164;13.572;2023-07-24T14:24:59;5.00;;;4.30;;
60610;SDS011;46439;51.164;13.572;2023-07-24T14:27:27;6.70;;;4.30;;
60610;SDS011;46439;51.164;13.572;2023-07-24T14:29:56;5.90;;;4.70;;
60610;SDS011;46439;51.164;13.572;2023-07-24T14:32:24;6.50;;;4.50;;
60610;SDS011;46439;51.164;13.572;2023-07-24T14:34:53;7.20;;;4.60;;
60610;SDS011;46439;51.164;13.572;2023-07-24T14:37:21;5.60;;;4.60;;
60610;SDS011;46439;51.164;13.572;2023-07-24T14:39:50;6.60;;;4.30;;
60610;SDS011;46439;51.164;13.572;2023-07-24T14:42:19;6.10;;;5.00;;
60610;SDS011;46439;51.164;13.572;2023-07-24T14:44:47;5.60;;;4.70;;
60610;SDS011;46439;51.164;13.572;2023-07-24T14:47:16;8.10;;;5.10;;
60610;SDS011;46439;51.164;13.572;2023-07-24T14:49:44;9.20;;;5.40;;